Time;durP1;ratioP1;P1;durP2;ratioP2;P2;SDS_P1;SDS_P2;PMS_P1;PMS_P2;Temp;Humidity;BMP_temperature;BMP_pressure;BME280_temperature;BME280_humidity;BME280_pressure;Samples;Min_cycle;Max_cycle;Signal;HPM_P1;HPM_P2
2022/07/05 00:00:58;;;;;;;5.70;5.13;;;13.40;99.90;;;;;;4987286;28;20049;-70
2022/07/05 00:03:24;;;;;;;6.63;6.00;;;13.40;99.90;;;;;;4988181;28;20392;-70
2022/07/05 00:05:50;;;;;;;6.90;6.20;;;13.30;99.90;;;;;;4988062;28;20418;-70
2022/07/05 00:08:16;;;;;;;5.78;5.07;;;13.30;99.90;;;;;;4988901;28;20061;-71
2022/07/05 00:10:42;;;;;;;8.57;5.25;;;13.20;99.90;;;;;;4991775;28;20045;-70
2022/07/05 00:13:08;;;;;;;8.30;5.28;;;13.20;99.90;;;;;;4991583;28;20046;-70
2022/07/05 00:15:34;;;;;;;9.68;5.38;;;13.10;99.90;;;;;;4990267;28;20070;-71
2022/07/05 00:17:59;;;;;;;6.00;5.50;;;13.10;99.90;;;;;;4992015;28;20128;-70
2022/07/05 00:20:25;;;;;;;8.63;5.95;;;13.10;99.90;;;;;;4974643;28;20490;-71
2022/07/05 00:22:51;;;;;;;6.63;5.82;;;13.00;99.90;;;;;;4973747;28;20053;-71
2022/07/05 00:25:17;;;;;;;5.60;5.10;;;13.00;99.90;;;;;;4973299;28;20050;-70
2022/07/05 00:27:43;;;;;;;7.13;6.43;;;13.00;99.90;;;;;;4973134;28;20070;-70
2022/07/05 00:30:10;;;;;;;7.28;5.50;;;13.00;99.90;;;;;;4991548;28;20141;-71
2022/07/05 00:32:36;;;;;;;6.22;5.63;;;12.90;99.90;;;;;;4973921;28;20050;-70
2022/07/05 00:35:03;;;;;;;6.68;6.07;;;12.90;99.90;;;;;;4968376;28;20085;-71
2022/07/05 00:37:29;;;;;;;11.35;6.07;;;12.90;99.90;;;;;;4967607;28;20101;-70
2022/07/05 00:39:55;;;;;;;6.47;5.72;;;12.80;99.90;;;;;;4971410;28;20089;-70
2022/07/05 00:42:22;;;;;;;6.00;5.50;;;12.80;99.90;;;;;;4967299;28;20117;-71
2022/07/05 00:44:48;;;;;;;7.10;6.03;;;12.80;99.90;;;;;;4991438;28;20129;-70
2022/07/05 00:47:13;;;;;;;8.30;6.38;;;12.70;99.90;;;;;;4973855;28;20137;-71
2022/07/05 00:49:40;;;;;;;9.43;6.68;;;12.70;99.90;;;;;;4974171;28;20050;-71
2022/07/05 00:52:07;;;;;;;8.77;6.70;;;12.70;99.90;;;;;;4954328;28;20047;-70
2022/07/05 00:54:34;;;;;;;6.95;6.25;;;12.70;99.90;;;;;;4987608;28;20096;-70
2022/07/05 00:57:00;;;;;;;10.75;7.35;;;12.60;99.90;;;;;;4974178;28;20050;-70
2022/07/05 00:59:27;;;;;;;6.60;6.05;;;12.60;99.90;;;;;;4983568;28;20050;-70
2022/07/05 01:01:52;;;;;;;8.10;7.20;;;12.60;99.90;;;;;;4973476;28;20050;-70
2022/07/05 01:04:18;;;;;;;17.20;7.32;;;12.50;99.90;;;;;;4973019;28;20078;-70
2022/07/05 01:06:47;;;;;;;11.23;8.15;;;12.50;99.90;;;;;;4969759;28;20046;-71
2022/07/05 01:09:13;;;;;;;8.45;7.57;;;12.50;99.90;;;;;;4972581;28;20122;-70
2022/07/05 01:11:40;;;;;;;8.25;7.45;;;12.40;99.90;;;;;;4990838;28;20054;-71
2022/07/05 01:14:10;;;;;;;7.38;6.63;;;12.40;99.90;;;;;;4991136;28;20058;-71
2022/07/05 01:16:38;;;;;;;10.40;7.53;;;12.40;99.90;;;;;;4990649;28;20125;-70
2022/07/05 01:19:06;;;;;;;7.95;7.15;;;12.30;99.90;;;;;;4973621;28;20491;-70
2022/07/05 01:21:36;;;;;;;12.02;7.95;;;12.30;99.90;;;;;;4978981;28;20051;-70
2022/07/05 01:24:01;;;;;;;9.77;8.75;;;12.30;99.90;;;;;;4981497;28;20046;-71
2022/07/05 01:26:27;;;;;;;8.63;7.72;;;12.30;99.90;;;;;;4973364;28;20096;-71
2022/07/05 01:28:52;;;;;;;9.27;8.38;;;12.20;99.90;;;;;;4973066;28;20049;-71
2022/07/05 01:31:18;;;;;;;11.27;7.93;;;12.20;99.90;;;;;;4989903;28;20060;-70
2022/07/05 01:33:44;;;;;;;11.57;9.00;;;12.20;99.90;;;;;;4963195;28;20063;-70
2022/07/05 01:36:11;;;;;;;11.82;7.88;;;12.20;99.90;;;;;;4977420;28;20058;-71
2022/07/05 01:38:38;;;;;;;8.80;8.00;;;12.10;99.90;;;;;;4953873;28;20061;-70
2022/07/05 01:41:04;;;;;;;10.65;8.20;;;12.10;99.90;;;;;;4975229;28;20088;-70
2022/07/05 01:43:30;;;;;;;11.07;9.25;;;12.10;99.90;;;;;;4957348;28;20575;-71
2022/07/05 01:46:01;;;;;;;9.90;8.75;;;12.10;99.90;;;;;;4960245;28;20051;-71
2022/07/05 01:48:29;;;;;;;9.60;7.90;;;12.00;99.90;;;;;;4966468;28;20048;-71
2022/07/05 01:51:01;;;;;;;9.10;8.18;;;12.00;99.90;;;;;;4946844;28;20054;-71
2022/07/05 01:53:31;;;;;;;8.55;7.65;;;12.00;99.90;;;;;;4969201;28;20119;-70
2022/07/05 01:56:01;;;;;;;10.40;8.40;;;12.00;99.90;;;;;;4950513;28;20047;-70
2022/07/05 01:58:31;;;;;;;9.10;7.10;;;11.90;99.90;;;;;;4969167;28;20105;-70
2022/07/05 02:00:57;;;;;;;11.82;8.23;;;11.90;99.90;;;;;;4971208;28;20039;-70
2022/07/05 02:03:23;;;;;;;8.45;7.18;;;11.90;99.90;;;;;;4953145;28;20058;-70
2022/07/05 02:05:49;;;;;;;8.45;7.10;;;11.90;99.90;;;;;;4967450;28;20772;-70
2022/07/05 02:08:17;;;;;;;8.02;7.18;;;11.80;99.90;;;;;;4952688;28;20047;-71
2022/07/05 02:10:43;;;;;;;13.55;8.18;;;11.80;99.90;;;;;;4937743;28;20562;-71
2022/07/05 02:13:09;;;;;;;10.07;8.13;;;11.80;99.90;;;;;;4952860;28;20127;-70
2022/07/05 02:15:37;;;;;;;9.77;8.77;;;11.80;99.90;;;;;;4952296;28;20122;-71
2022/07/05 02:18:03;;;;;;;9.10;8.18;;;11.70;99.90;;;;;;4967117;28;20126;-71
2022/07/05 02:20:30;;;;;;;9.65;8.65;;;11.70;99.90;;;;;;4953014;28;20054;-71
2022/07/05 02:22:56;;;;;;;9.20;8.10;;;11.70;99.90;;;;;;4970079;28;20134;-70
2022/07/05 02:25:22;;;;;;;10.02;8.63;;;11.70;99.90;;;;;;4970278;28;20047;-70
2022/07/05 02:27:49;;;;;;;12.00;8.80;;;11.60;99.90;;;;;;4953209;28;20046;-70
2022/07/05 02:30:15;;;;;;;12.88;9.70;;;11.60;99.90;;;;;;4953455;28;20133;-70
2022/07/05 02:32:41;;;;;;;10.05;9.07;;;11.60;99.90;;;;;;4969344;28;20121;-70
2022/07/05 02:35:09;;;;;;;10.65;9.57;;;11.60;99.90;;;;;;4958662;28;20550;-70
2022/07/05 02:37:35;;;;;;;16.35;10.40;;;11.60;99.90;;;;;;4977611;28;20062;-70
2022/07/05 02:40:00;;;;;;;11.27;9.48;;;11.50;99.90;;;;;;4969183;28;20053;-71
2022/07/05 02:42:26;;;;;;;17.00;10.27;;;11.50;99.90;;;;;;4975667;28;20054;-70
2022/07/05 02:44:52;;;;;;;13.80;8.98;;;11.50;99.90;;;;;;4975817;28;20047;-70
2022/07/05 02:47:18;;;;;;;11.65;9.82;;;11.50;99.90;;;;;;4984864;28;20050;-70
2022/07/05 02:49:43;;;;;;;11.45;8.95;;;11.50;99.90;;;;;;4968836;28;20130;-70
2022/07/05 02:52:09;;;;;;;11.18;10.00;;;11.40;99.90;;;;;;4969721;28;20153;-70
2022/07/05 02:54:35;;;;;;;10.75;8.85;;;11.40;99.90;;;;;;4969814;28;20047;-70
2022/07/05 02:57:00;;;;;;;16.55;10.65;;;11.40;99.90;;;;;;4968520;28;20057;-71
2022/07/05 02:59:26;;;;;;;10.90;8.25;;;11.30;99.90;;;;;;4963983;28;20639;-71
2022/07/05 03:01:52;;;;;;;10.07;9.07;;;11.30;99.90;;;;;;4967696;28;20173;-70
2022/07/05 03:04:18;;;;;;;10.50;9.40;;;11.30;99.90;;;;;;4969545;28;20491;-70
2022/07/05 03:06:45;;;;;;;13.00;9.73;;;11.30;99.90;;;;;;4984373;28;20054;-71
2022/07/05 03:09:10;;;;;;;12.55;9.63;;;11.30;99.90;;;;;;4966782;28;20427;-70
2022/07/05 03:11:36;;;;;;;12.13;10.82;;;11.30;99.90;;;;;;4969169;28;20051;-71
2022/07/05 03:14:02;;;;;;;12.35;10.57;;;11.20;99.90;;;;;;4960899;28;20500;-71
2022/07/05 03:16:29;;;;;;;13.02;10.90;;;11.20;99.90;;;;;;4970302;28;20035;-70
2022/07/05 03:18:54;;;;;;;14.05;10.35;;;11.20;99.90;;;;;;4968979;28;20955;-70
2022/07/05 03:21:20;;;;;;;16.90;11.45;;;11.20;99.90;;;;;;4968094;28;20133;-70
2022/07/05 03:23:46;;;;;;;13.23;11.32;;;11.20;99.90;;;;;;4965968;28;20420;-71
2022/07/05 03:26:12;;;;;;;14.18;12.75;;;11.20;99.90;;;;;;4968714;28;20129;-70
2022/07/05 03:28:37;;;;;;;12.82;11.05;;;11.20;99.90;;;;;;4967413;28;20105;-70
2022/07/05 03:31:03;;;;;;;12.82;11.32;;;11.20;99.90;;;;;;4969962;28;20467;-70
2022/07/05 03:33:28;;;;;;;15.00;10.63;;;11.20;99.90;;;;;;4967631;28;20042;-70
2022/07/05 03:35:54;;;;;;;16.08;12.85;;;11.20;99.90;;;;;;4960057;28;20054;-71
2022/07/05 03:38:21;;;;;;;15.27;13.68;;;11.20;99.90;;;;;;4986713;28;20528;-71
2022/07/05 03:40:46;;;;;;;15.63;12.77;;;11.20;99.90;;;;;;4970779;28;20419;-71
2022/07/05 03:43:12;;;;;;;20.17;13.95;;;11.20;99.90;;;;;;4970386;28;20057;-72
2022/07/05 03:45:38;;;;;;;15.85;13.50;;;11.20;99.90;;;;;;4970976;28;20046;-72
2022/07/05 03:48:04;;;;;;;14.15;12.70;;;11.20;99.90;;;;;;4988102;28;20030;-72
2022/07/05 03:50:31;;;;;;;17.90;13.15;;;11.20;99.90;;;;;;4967539;28;20062;-71
2022/07/05 03:52:57;;;;;;;18.08;14.32;;;11.30;99.90;;;;;;4986036;28;20038;-71
2022/07/05 03:55:23;;;;;;;19.23;14.45;;;11.30;99.90;;;;;;4979707;28;20495;-71
2022/07/05 03:57:49;;;;;;;20.55;14.85;;;11.30;99.90;;;;;;4970696;28;20120;-71
2022/07/05 04:00:16;;;;;;;19.27;14.05;;;11.30;99.90;;;;;;4986708;28;20522;-71
2022/07/05 04:02:41;;;;;;;22.13;15.13;;;11.40;99.90;;;;;;4988174;28;20446;-70
2022/07/05 04:05:07;;;;;;;19.23;14.18;;;11.40;99.90;;;;;;4987575;28;20042;-70
2022/07/05 04:07:33;;;;;;;21.23;14.80;;;11.40;99.90;;;;;;4987597;28;20092;-68
2022/07/05 04:09:59;;;;;;;20.80;14.18;;;11.50;99.90;;;;;;4987866;28;20042;-68
2022/07/05 04:12:25;;;;;;;17.38;15.18;;;11.60;99.90;;;;;;4988007;28;20050;-68
2022/07/05 04:14:51;;;;;;;22.35;16.50;;;11.60;99.90;;;;;;4987900;28;20112;-67
2022/07/05 04:17:17;;;;;;;18.70;16.10;;;11.70;99.90;;;;;;4987514;28;20050;-68
2022/07/05 04:19:43;;;;;;;19.70;16.48;;;11.80;99.90;;;;;;4987922;28;20049;-66
2022/07/05 04:22:08;;;;;;;21.23;15.88;;;11.80;99.90;;;;;;4967995;28;20149;-66
2022/07/05 04:25:16;;;;;;;31.95;16.05;;;12.00;99.90;;;;;;4987192;28;20503;-66
2022/07/05 04:27:22;;;;;;;19.27;16.77;;;12.00;99.90;;;;;;4985883;28;20050;-66
2022/07/05 04:29:48;;;;;;;23.52;17.30;;;12.10;99.90;;;;;;4982810;28;20411;-66
2022/07/05 04:32:14;;;;;;;17.05;15.20;;;12.10;99.90;;;;;;4988025;28;20038;-66
2022/07/05 04:34:39;;;;;;;19.88;17.15;;;12.20;99.90;;;;;;4969248;28;20046;-66
2022/07/05 04:37:05;;;;;;;19.95;17.30;;;12.30;99.90;;;;;;4975464;28;20109;-66
2022/07/05 04:39:30;;;;;;;19.65;17.63;;;12.30;99.90;;;;;;4966575;28;20050;-66
2022/07/05 04:41:56;;;;;;;20.90;16.63;;;12.40;99.90;;;;;;4965580;28;20135;-66
2022/07/05 04:44:22;;;;;;;17.25;14.88;;;12.40;99.90;;;;;;4962533;28;20042;-66
2022/07/05 04:46:47;;;;;;;24.33;18.50;;;12.50;99.90;;;;;;4970147;28;20055;-67
2022/07/05 04:49:13;;;;;;;34.58;19.95;;;12.50;99.90;;;;;;4965586;28;20050;-66
2022/07/05 04:51:38;;;;;;;20.40;17.38;;;12.60;99.90;;;;;;4964999;28;20054;-67
2022/07/05 04:54:04;;;;;;;21.40;18.10;;;12.60;99.90;;;;;;4949662;28;20424;-67
2022/07/05 04:56:31;;;;;;;25.10;18.25;;;12.60;99.90;;;;;;4966641;28;20126;-67
2022/07/05 04:58:56;;;;;;;20.40;17.35;;;12.70;99.90;;;;;;4971530;28;20443;-67
2022/07/05 05:01:22;;;;;;;33.58;19.00;;;12.80;99.90;;;;;;4972714;28;20051;-66
2022/07/05 05:03:48;;;;;;;23.88;17.50;;;12.80;99.90;;;;;;4971224;28;20050;-66
2022/07/05 05:06:14;;;;;;;29.02;20.48;;;12.80;99.90;;;;;;4964674;28;20039;-67
2022/07/05 05:08:41;;;;;;;24.00;17.67;;;12.90;99.90;;;;;;4970622;28;20039;-67
2022/07/05 05:11:07;;;;;;;22.85;18.30;;;13.00;99.90;;;;;;4971987;28;20043;-67
2022/07/05 05:13:33;;;;;;;20.83;17.88;;;13.00;99.90;;;;;;4970101;28;20081;-66
2022/07/05 05:15:59;;;;;;;23.80;18.02;;;13.00;99.90;;;;;;4971727;28;20051;-66
2022/07/05 05:18:26;;;;;;;25.73;17.42;;;13.10;99.90;;;;;;4962761;28;20547;-66
2022/07/05 05:20:55;;;;;;;23.83;19.10;;;13.10;99.90;;;;;;4973455;28;20527;-66
2022/07/05 05:23:22;;;;;;;21.55;19.08;;;13.20;99.90;;;;;;4969922;28;20042;-66
2022/07/05 05:25:49;;;;;;;23.65;18.42;;;13.20;99.90;;;;;;4973492;28;20051;-66
2022/07/05 05:28:15;;;;;;;19.42;16.80;;;13.30;99.90;;;;;;4969328;28;20061;-66
2022/07/05 05:30:40;;;;;;;34.60;18.70;;;13.40;99.90;;;;;;4972531;28;20129;-66
2022/07/05 05:33:06;;;;;;;25.35;17.92;;;13.40;99.90;;;;;;4970522;28;20074;-66
2022/07/05 05:35:31;;;;;;;21.98;18.13;;;13.50;99.90;;;;;;4971027;28;20070;-67
2022/07/05 05:37:57;;;;;;;24.50;18.30;;;13.60;99.90;;;;;;4989439;28;20050;-66
2022/07/05 05:40:24;;;;;;;21.90;17.95;;;13.60;99.90;;;;;;4990789;28;20057;-67
2022/07/05 05:42:52;;;;;;;25.53;18.57;;;13.70;99.90;;;;;;4989460;28;20053;-64
2022/07/05 05:45:18;;;;;;;26.38;18.45;;;13.80;99.90;;;;;;4972121;28;20042;-64
2022/07/05 05:47:49;;;;;;;27.08;17.10;;;13.90;99.90;;;;;;4988000;28;20136;-64
2022/07/05 05:50:22;;;;;;;18.45;16.27;;;14.10;99.90;;;;;;4973546;28;20409;-66
2022/07/05 05:52:48;;;;;;;21.08;15.38;;;14.30;99.90;;;;;;4990186;28;20161;-66
2022/07/05 05:55:14;;;;;;;19.27;15.43;;;14.40;99.90;;;;;;4972954;28;20042;-66
2022/07/05 05:57:40;;;;;;;21.20;13.70;;;14.60;99.90;;;;;;4989418;28;20050;-66
2022/07/05 06:00:06;;;;;;;20.95;16.08;;;14.80;99.90;;;;;;4988996;28;20038;-65
2022/07/05 06:02:32;;;;;;;20.88;15.38;;;14.80;99.90;;;;;;4984736;28;20058;-65
2022/07/05 06:04:58;;;;;;;18.13;15.23;;;14.90;99.90;;;;;;4985851;28;20125;-66
2022/07/05 06:07:24;;;;;;;21.20;15.38;;;15.00;99.90;;;;;;4989194;28;20089;-66
2022/07/05 06:09:49;;;;;;;16.42;14.63;;;15.20;99.90;;;;;;4984594;28;20050;-67
2022/07/05 06:12:15;;;;;;;16.02;13.55;;;15.30;99.90;;;;;;4989754;28;20666;-66
2022/07/05 06:14:42;;;;;;;19.05;14.30;;;15.40;99.90;;;;;;4996629;28;20416;-66
2022/07/05 06:17:07;;;;;;;16.05;13.18;;;15.50;99.90;;;;;;4989507;28;20068;-67
2022/07/05 06:19:33;;;;;;;13.65;12.05;;;15.60;99.90;;;;;;4987872;28;20476;-67
2022/07/05 06:21:59;;;;;;;16.50;11.73;;;15.70;99.90;;;;;;4989661;28;20496;-67
2022/07/05 06:24:24;;;;;;;15.93;12.52;;;15.80;99.90;;;;;;4988274;28;20195;-68
2022/07/05 06:26:50;;;;;;;16.27;12.27;;;15.90;99.90;;;;;;4961381;28;20065;-68
2022/07/05 06:29:15;;;;;;;13.10;9.75;;;16.00;99.90;;;;;;4989385;28;20080;-68
2022/07/05 06:31:41;;;;;;;14.40;9.20;;;16.20;99.90;;;;;;4989301;28;20117;-68
2022/07/05 06:34:07;;;;;;;10.50;9.40;;;16.30;99.90;;;;;;4988321;28;20141;-68
2022/07/05 06:36:33;;;;;;;9.80;8.63;;;16.50;99.90;;;;;;4979333;28;20056;-68
2022/07/05 06:38:58;;;;;;;16.17;8.55;;;16.70;99.90;;;;;;4957701;28;20130;-69
2022/07/05 06:41:24;;;;;;;15.02;8.95;;;16.90;99.90;;;;;;4953860;28;20132;-69
2022/07/05 06:43:50;;;;;;;15.18;8.45;;;17.10;99.90;;;;;;4957401;28;20514;-69
2022/07/05 06:46:15;;;;;;;7.72;7.03;;;17.40;99.90;;;;;;4957060;28;20047;-69
2022/07/05 06:48:41;;;;;;;9.40;6.22;;;17.60;99.90;;;;;;4981773;28;20576;-69
2022/07/05 06:51:07;;;;;;;11.18;6.78;;;17.80;99.90;;;;;;4973596;28;20074;-69
2022/07/05 06:53:32;;;;;;;6.97;6.28;;;18.10;99.90;;;;;;4958462;28;20046;-69
2022/07/05 06:55:58;;;;;;;6.40;4.95;;;18.40;99.90;;;;;;4975575;28;20042;-68
2022/07/05 06:58:24;;;;;;;13.48;6.30;;;18.70;99.90;;;;;;4975319;28;20484;-68
2022/07/05 07:00:49;;;;;;;6.50;4.78;;;18.90;99.90;;;;;;4976526;28;20057;-69
2022/07/05 07:03:16;;;;;;;8.02;5.53;;;19.10;99.90;;;;;;4976239;28;20043;-68
2022/07/05 07:05:41;;;;;;;13.70;4.90;;;19.30;99.90;;;;;;4966303;28;20426;-68
2022/07/05 07:10:51;;;;;;;7.47;3.75;;;19.90;99.90;;;;;;4969925;28;20078;-68
2022/07/05 07:13:19;;;;;;;5.13;3.03;;;20.10;99.90;;;;;;4968774;28;20077;-67
2022/07/05 07:15:46;;;;;;;5.05;3.55;;;20.30;99.90;;;;;;4969601;28;20042;-66
2022/07/05 07:18:12;;;;;;;7.93;3.13;;;20.40;99.90;;;;;;4981712;28;20499;-67
2022/07/05 07:20:37;;;;;;;4.75;2.85;;;20.60;99.90;;;;;;4962836;28;20078;-68
2022/07/05 07:23:03;;;;;;;3.50;2.83;;;20.70;99.90;;;;;;4961329;28;20082;-67
2022/07/05 07:25:28;;;;;;;7.28;3.08;;;20.80;99.90;;;;;;4951401;28;20471;-70
2022/07/05 07:27:55;;;;;;;4.05;2.35;;;20.90;99.90;;;;;;4950390;28;20544;-69
2022/07/05 07:30:26;;;;;;;5.38;2.42;;;21.10;99.90;;;;;;4960237;28;20060;-70
2022/07/05 07:32:53;;;;;;;4.15;2.55;;;20.90;99.90;;;;;;4964718;28;20049;-70
2022/07/05 07:35:18;;;;;;;2.78;2.33;;;20.80;99.90;;;;;;4957708;28;20055;-70
2022/07/05 07:37:44;;;;;;;3.80;2.90;;;20.70;99.90;;;;;;4970927;28;20392;-70
2022/07/05 07:40:10;;;;;;;7.53;2.80;;;20.60;99.90;;;;;;4971276;28;20526;-74
2022/07/05 07:42:36;;;;;;;3.38;2.90;;;20.70;99.90;;;;;;4968563;28;20046;-72
2022/07/05 07:45:05;;;;;;;2.90;2.70;;;20.60;99.90;;;;;;4970951;28;20132;-72
2022/07/05 07:47:34;;;;;;;4.85;3.17;;;20.60;99.90;;;;;;4970456;28;20457;-73
2022/07/05 07:50:01;;;;;;;6.78;2.70;;;20.80;99.90;;;;;;4971990;28;20046;-72
2022/07/05 07:52:27;;;;;;;11.83;3.03;;;20.90;99.90;;;;;;4971056;28;20053;-69
2022/07/05 07:54:53;;;;;;;6.15;2.40;;;21.20;99.90;;;;;;4971215;28;20038;-71
2022/07/05 07:57:19;;;;;;;8.18;2.47;;;21.40;99.90;;;;;;4982547;28;20085;-71
2022/07/05 07:59:44;;;;;;;6.07;2.53;;;21.30;99.90;;;;;;4988489;28;20054;-72
2022/07/05 08:02:10;;;;;;;2.95;2.20;;;21.40;99.90;;;;;;4970528;28;20054;-70
2022/07/05 08:04:36;;;;;;;4.93;1.95;;;21.70;99.90;;;;;;4987403;28;20049;-70
2022/07/05 08:07:03;;;;;;;5.05;1.98;;;22.00;99.90;;;;;;4969133;28;20054;-73
2022/07/05 08:09:29;;;;;;;7.90;2.70;;;22.20;99.90;;;;;;4968307;28;20122;-72
2022/07/05 08:11:55;;;;;;;5.45;2.83;;;22.40;99.90;;;;;;4966287;28;20181;-71
2022/07/05 08:14:21;;;;;;;6.78;2.78;;;22.50;98.60;;;;;;4981348;28;20429;-70
2022/07/05 08:16:49;;;;;;;27.30;2.97;;;22.70;98.10;;;;;;4983493;28;20046;-70
2022/07/05 08:21:59;;;;;;;6.38;2.92;;;22.20;95.20;;;;;;4969289;28;20046;-71
2022/07/05 08:24:25;;;;;;;5.75;3.67;;;21.80;97.50;;;;;;4969250;28;20042;-72
2022/07/05 08:26:51;;;;;;;3.85;2.67;;;21.60;99.10;;;;;;4965872;28;20441;-71
2022/07/05 08:29:17;;;;;;;5.20;2.75;;;21.90;99.90;;;;;;4987427;28;20049;-72
2022/07/05 08:31:45;;;;;;;3.65;3.10;;;21.80;99.90;;;;;;4969083;28;20046;-72
2022/07/05 08:34:11;;;;;;;3.63;2.40;;;21.70;99.90;;;;;;4967883;28;20058;-72
2022/07/05 08:36:38;;;;;;;9.35;3.00;;;21.70;99.90;;;;;;4981520;28;20400;-72
2022/07/05 08:39:04;;;;;;;10.65;3.90;;;21.70;99.80;;;;;;4985949;28;20133;-72
2022/07/05 08:41:33;;;;;;;11.00;3.13;;;22.10;98.60;;;;;;4971685;28;20125;-72
2022/07/05 08:44:01;;;;;;;5.53;2.70;;;22.00;92.70;;;;;;4975062;28;20047;-73
2022/07/05 08:46:31;;;;;;;4.13;2.25;;;22.10;95.90;;;;;;4973391;28;20055;-72
2022/07/05 08:48:59;;;;;;;6.35;2.95;;;22.20;95.00;;;;;;4960998;28;20043;-72
2022/07/05 08:51:28;;;;;;;4.60;2.63;;;21.90;92.80;;;;;;4969961;28;20085;-72
2022/07/05 08:53:55;;;;;;;3.05;2.63;;;21.70;92.40;;;;;;4990408;28;20046;-74
2022/07/05 08:56:21;;;;;;;3.67;2.55;;;21.90;94.70;;;;;;4995518;28;20134;-72
2022/07/05 08:58:49;;;;;;;5.00;2.70;;;22.20;92.70;;;;;;4971440;28;20058;-72
2022/07/05 09:01:15;;;;;;;17.90;2.50;;;22.50;90.10;;;;;;4972895;28;20062;-73
2022/07/05 09:03:45;;;;;;;4.88;2.63;;;22.70;83.30;;;;;;4966729;28;20066;-72
2022/07/05 09:06:17;;;;;;;3.92;2.40;;;22.70;79.50;;;;;;4977740;28;20112;-72
2022/07/05 09:08:44;;;;;;;2.33;2.13;;;22.70;78.00;;;;;;4985739;28;20043;-72
2022/07/05 09:11:12;;;;;;;5.90;2.35;;;22.90;75.90;;;;;;4965326;28;20499;-71
2022/07/05 09:13:41;;;;;;;5.38;2.50;;;22.90;78.50;;;;;;4967757;28;20055;-71
2022/07/05 09:16:07;;;;;;;4.70;2.45;;;23.00;76.70;;;;;;4979905;28;20054;-71
2022/07/05 09:18:48;;;;;;;5.40;2.33;;;23.10;79.10;;;;;;4973578;28;20046;-71
2022/07/05 09:21:14;;;;;;;9.60;2.80;;;23.00;73.40;;;;;;4977883;28;20487;-72
2022/07/05 09:23:40;;;;;;;4.97;2.50;;;22.90;77.50;;;;;;4971881;28;20090;-72
2022/07/05 09:26:06;;;;;;;4.65;2.00;;;23.10;77.80;;;;;;4971172;28;20085;-72
2022/07/05 09:28:32;;;;;;;8.48;3.00;;;22.80;75.40;;;;;;4971910;28;20578;-72
2022/07/05 09:30:57;;;;;;;11.25;2.75;;;22.60;74.60;;;;;;4970876;28;20046;-73
2022/07/05 09:33:23;;;;;;;6.70;2.50;;;22.20;74.80;;;;;;4975641;28;20054;-71
2022/07/05 09:36:01;;;;;;;4.43;2.63;;;22.00;75.60;;;;;;4966251;28;20105;-71
2022/07/05 09:38:26;;;;;;;;;;;21.90;77.10;;;;;;4974217;28;20077;-72
2022/07/05 09:40:54;;;;;;;7.57;2.42;;;21.70;75.40;;;;;;4973634;28;19988;-71
2022/07/05 09:43:25;;;;;;;8.32;2.90;;;21.80;80.10;;;;;;4991345;28;20096;-71
2022/07/05 09:46:00;;;;;;;6.88;2.15;;;21.90;78.00;;;;;;4991413;28;20046;-71
2022/07/05 09:48:31;;;;;;;21.63;3.38;;;22.00;77.50;;;;;;4972634;28;20061;-71
2022/07/05 09:51:15;;;;;;;26.00;4.38;;;22.00;74.30;;;;;;4973381;28;20046;-71
2022/07/05 09:53:49;;;;;;;6.15;2.70;;;21.90;71.60;;;;;;4971113;28;20433;-71
2022/07/05 09:56:17;;;;;;;5.20;2.55;;;22.00;73.50;;;;;;4995046;28;20050;-71
2022/07/05 09:58:43;;;;;;;8.48;2.40;;;21.90;75.70;;;;;;4970157;28;20507;-71
2022/07/05 10:01:25;;;;;;;3.45;2.45;;;21.70;76.10;;;;;;4963417;28;20053;-71
2022/07/05 10:04:01;;;;;;;7.45;2.97;;;21.80;76.80;;;;;;4972092;28;20092;-71
2022/07/05 10:06:28;;;;;;;5.43;2.45;;;21.70;78.60;;;;;;4981838;28;20074;-71
2022/07/05 10:08:54;;;;;;;10.52;2.65;;;21.60;78.20;;;;;;4989086;28;20039;-71
2022/07/05 10:11:21;;;;;;;3.20;2.20;;;21.70;78.80;;;;;;4970845;28;20362;-71
2022/07/05 10:13:54;;;;;;;13.48;3.65;;;21.70;79.30;;;;;;4989968;28;20050;-71
2022/07/05 10:16:21;;;;;;;10.90;2.53;;;21.80;79.80;;;;;;4989559;28;20053;-71
2022/07/05 10:18:51;;;;;;;9.27;3.05;;;21.90;79.90;;;;;;4964225;28;20046;-71
2022/07/05 10:21:18;;;;;;;19.15;2.75;;;21.80;78.70;;;;;;4962428;28;20055;-70
2022/07/05 10:23:46;;;;;;;6.78;2.40;;;21.80;81.20;;;;;;4988708;28;20222;-71
2022/07/05 10:26:13;;;;;;;5.22;3.17;;;21.80;82.20;;;;;;4990007;28;20458;-71
2022/07/05 10:28:53;;;;;;;7.60;3.20;;;21.70;81.60;;;;;;4979863;28;20042;-69
2022/07/05 10:31:18;;;;;;;4.15;2.53;;;21.60;82.10;;;;;;4986891;28;20057;-71
2022/07/05 10:33:45;;;;;;;5.93;3.13;;;21.60;84.90;;;;;;4971577;28;20042;-71
2022/07/05 10:36:12;;;;;;;8.65;2.75;;;21.60;85.60;;;;;;4963669;28;20059;-71
2022/07/05 10:38:41;;;;;;;3.60;2.65;;;21.50;90.10;;;;;;4988150;28;20109;-71
2022/07/05 10:41:10;;;;;;;5.45;3.22;;;21.30;89.00;;;;;;4966314;28;20050;-71
2022/07/05 10:43:36;;;;;;;8.88;3.25;;;21.40;88.40;;;;;;4984629;28;20058;-72
2022/07/05 10:46:06;;;;;;;6.95;3.20;;;21.40;89.80;;;;;;4969555;28;20038;-72
2022/07/05 10:48:32;;;;;;;4.40;2.47;;;21.50;90.70;;;;;;4977902;28;20054;-71
2022/07/05 10:50:59;;;;;;;8.38;2.50;;;21.60;88.90;;;;;;4971850;28;20038;-71
2022/07/05 10:53:37;;;;;;;6.70;2.90;;;21.80;90.30;;;;;;4987040;28;20054;-71
2022/07/05 10:56:02;;;;;;;5.60;2.78;;;22.20;90.70;;;;;;4972406;28;20461;-71
2022/07/05 10:58:38;;;;;;;11.07;2.35;;;22.20;84.40;;;;;;4987923;28;20129;-71
2022/07/05 11:01:19;;;;;;;3.75;2.83;;;22.30;78.60;;;;;;4969465;28;20089;-71
2022/07/05 11:04:00;;;;;;;5.32;2.47;;;22.20;77.40;;;;;;4965797;28;20042;-71
2022/07/05 11:06:43;;;;;;;7.38;3.88;;;22.10;74.20;;;;;;4985931;28;20046;-74
2022/07/05 11:09:13;;;;;;;6.22;2.67;;;22.00;77.50;;;;;;4970992;28;20065;-71
2022/07/05 11:11:41;;;;;;;7.03;3.20;;;21.80;81.70;;;;;;4971235;28;20085;-72
2022/07/05 11:14:19;;;;;;;4.10;3.30;;;21.70;84.30;;;;;;4974356;28;20054;-72
2022/07/05 11:16:45;;;;;;;2.42;2.22;;;21.50;81.10;;;;;;4973190;28;20145;-72
2022/07/05 11:19:13;;;;;;;3.70;2.75;;;21.40;84.90;;;;;;4988589;28;20066;-72
2022/07/05 11:21:59;;;;;;;8.98;3.22;;;21.30;87.50;;;;;;4988689;28;20056;-73
2022/07/05 11:24:24;;;;;;;12.88;3.22;;;21.40;88.00;;;;;;4984379;28;20053;-70
2022/07/05 11:26:53;;;;;;;10.30;3.58;;;21.40;88.50;;;;;;4986861;28;20038;-71
2022/07/05 11:30:06;;;;;;;6.25;2.85;;;21.50;89.70;;;;;;4971014;28;20108;-71
2022/07/05 11:32:36;;;;;;;3.85;3.13;;;21.40;88.30;;;;;;4971373;28;20518;-71
2022/07/05 11:35:28;;;;;;;6.45;2.97;;;21.30;90.20;;;;;;4970751;28;20046;-71
2022/07/05 11:37:56;;;;;;;11.77;3.40;;;21.20;93.00;;;;;;4958153;28;20059;-70
2022/07/05 11:40:22;;;;;;;5.35;3.03;;;21.10;95.30;;;;;;4962779;28;20559;-70
2022/07/05 11:42:49;;;;;;;7.43;3.00;;;20.90;97.40;;;;;;4960291;28;20050;-70
2022/07/05 11:45:15;;;;;;;6.25;2.72;;;21.00;98.40;;;;;;4951929;28;20058;-70
2022/07/05 11:47:41;;;;;;;3.28;2.92;;;21.10;98.20;;;;;;4951616;28;20578;-70
2022/07/05 11:50:08;;;;;;;5.38;3.65;;;21.00;98.30;;;;;;4949923;28;20034;-70
2022/07/05 11:52:36;;;;;;;5.03;3.72;;;21.00;98.90;;;;;;4949251;28;20067;-69
2022/07/05 11:55:07;;;;;;;5.18;3.10;;;21.10;98.90;;;;;;4968106;28;20059;-69
2022/07/05 11:57:32;;;;;;;7.55;3.05;;;21.10;96.70;;;;;;4967095;28;20050;-70
2022/07/05 11:59:58;;;;;;;12.80;4.15;;;21.30;95.20;;;;;;4968249;28;20122;-70
2022/07/05 12:02:24;;;;;;;8.57;3.60;;;21.20;92.70;;;;;;4968015;28;20035;-70
2022/07/05 12:04:52;;;;;;;4.32;2.65;;;21.30;94.10;;;;;;4966378;28;20097;-70
2022/07/05 12:07:27;;;;;;;;;;;21.40;94.00;;;;;;4936365;28;20089;-71
2022/07/05 12:12:43;;;;;;;9.13;3.58;;;21.60;91.50;;;;;;4941779;28;20047;-70
2022/07/05 12:15:16;;;;;;;6.72;2.30;;;21.60;91.10;;;;;;4947263;28;20155;-70
2022/07/05 12:17:51;;;;;;;10.50;3.13;;;21.50;88.50;;;;;;4968044;28;20496;-69
2022/07/05 12:20:24;;;;;;;9.02;3.70;;;21.50;89.10;;;;;;4968288;28;20053;-70
2022/07/05 12:22:51;;;;;;;7.70;3.50;;;21.40;85.60;;;;;;4968849;28;20055;-70
2022/07/05 12:25:21;;;;;;;9.87;2.93;;;21.50;91.10;;;;;;4950757;28;20519;-70
2022/07/05 12:27:48;;;;;;;6.45;2.72;;;21.70;84.50;;;;;;4939412;28;20051;-70
2022/07/05 12:30:15;;;;;;;4.82;2.20;;;22.00;82.00;;;;;;4967140;28;20043;-72
2022/07/05 12:33:00;;;;;;;4.18;2.28;;;22.10;74.20;;;;;;4967467;28;20043;-70
2022/07/05 12:35:32;;;;;;;5.38;2.58;;;22.30;69.80;;;;;;4947841;28;20058;-70
2022/07/05 12:38:07;;;;;;;4.70;2.97;;;22.50;71.70;;;;;;4977760;28;20412;-70
2022/07/05 12:40:34;;;;;;;5.68;2.35;;;22.40;67.90;;;;;;4985885;28;20410;-71
2022/07/05 12:43:14;;;;;;;5.13;2.80;;;22.40;67.30;;;;;;4969712;28;20050;-71
2022/07/05 12:45:43;;;;;;;18.15;1.90;;;22.60;68.80;;;;;;4983320;28;20389;-71
2022/07/05 12:48:10;;;;;;;2.17;1.48;;;22.70;65.60;;;;;;4987937;28;20396;-71
2022/07/05 12:50:50;;;;;;;4.07;2.13;;;22.80;62.70;;;;;;4985984;28;20046;-70